sensor_id;sensor_type;location;lat;lon;timestamp;temperature;humidity
17483;DHT22;8858;52.308;20.994;2023-02-12T00:01:49;3.20;99.90
17483;DHT22;8858;52.308;20.994;2023-02-12T00:04:21;3.20;99.90
17483;DHT22;8858;52.308;20.994;2023-02-12T00:06:50;3.20;99.90
17483;DHT22;8858;52.308;20.994;2023-02-12T00:09:19;3.20;99.90
17483;DHT22;8858;52.308;20.994;2023-02-12T00:11:48;3.20;99.90
17483;DHT22;8858;52.308;20.994;2023-02-12T00:14:17;3.20;99.90
17483;DHT22;8858;52.308;20.994;2023-02-12T00:16:48;3.10;99.90
17483;DHT22;8858;52.308;20.994;2023-02-12T00:19:17;3.10;99.90
17483;DHT22;8858;52.308;20.994;2023-02-12T00:21:46;3.10;99.90
17483;DHT22;8858;52.308;20.994;2023-02-12T00:24:14;3.00;99.90
17483;DHT22;8858;52.308;20.994;2023-02-12T00:26:45;3.00;99.90
17483;DHT22;8858;52.308;20.994;2023-02-12T00:29:17;3.00;99.90
17483;DHT22;8858;52.308;20.994;2023-02-12T00:31:45;3.00;99.90
17483;DHT22;8858;52.308;20.994;2023-02-12T00:34:14;3.00;99.90
17483;DHT22;8858;52.308;20.994;2023-02-12T00:36:43;3.00;99.90
17483;DHT22;8858;52.308;20.994;2023-02-12T00:39:12;3.00;99.90
17483;DHT22;8858;52.308;20.994;2023-02-12T00:41:41;2.90;99.90
17483;DHT22;8858;52.308;20.994;2023-02-12T00:44:11;3.00;99.90
17483;DHT22;8858;52.308;20.994;2023-02-12T00:46:41;3.00;99.90
17483;DHT22;8858;52.308;20.994;2023-02-12T00:49:09;3.00;99.90
17483;DHT22;8858;52.308;20.994;2023-02-12T00:51:37;2.90;99.90
17483;DHT22;8858;52.308;20.994;2023-02-12T00:54:09;2.90;99.90
17483;DHT22;8858;52.308;20.994;2023-02-12T00:56:38;2.90;99.90
17483;DHT22;8858;52.308;20.994;2023-02-12T00:59:10;3.00;99.90
17483;DHT22;8858;52.308;20.994;2023-02-12T01:01:38;2.90;99.90
17483;DHT22;8858;52.308;20.994;2023-02-12T01:04:07;2.90;99.90
17483;DHT22;8858;52.308;20.994;2023-02-12T01:06:36;2.90;99.90
17483;DHT22;8858;52.308;20.994;2023-02-12T01:09:05;2.90;99.90
17483;DHT22;8858;52.308;20.994;2023-02-12T01:11:37;2.80;99.90
17483;DHT22;8858;52.308;20.994;2023-02-12T01:14:06;2.90;99.90
17483;DHT22;8858;52.308;20.994;2023-02-12T01:16:35;2.90;99.90
17483;DHT22;8858;52.308;20.994;2023-02-12T01:19:05;2.80;99.90
17483;DHT22;8858;52.308;20.994;2023-02-12T01:21:34;2.80;99.90
17483;DHT22;8858;52.308;20.994;2023-02-12T01:24:06;2.80;99.90
17483;DHT22;8858;52.308;20.994;2023-02-12T01:26:35;2.80;99.90
17483;DHT22;8858;52.308;20.994;2023-02-12T01:29:05;2.80;99.90
17483;DHT22;8858;52.308;20.994;2023-02-12T01:31:38;2.80;99.90
17483;DHT22;8858;52.308;20.994;2023-02-12T01:34:09;2.80;99.90
17483;DHT22;8858;52.308;20.994;2023-02-12T01:36:39;2.80;99.90
17483;DHT22;8858;52.308;20.994;2023-02-12T01:39:08;2.70;99.90
17483;DHT22;8858;52.308;20.994;2023-02-12T01:41:42;2.80;99.90
17483;DHT22;8858;52.308;20.994;2023-02-12T01:44:14;2.70;99.90
17483;DHT22;8858;52.308;20.994;2023-02-12T01:46:53;2.80;99.90
17483;DHT22;8858;52.308;20.994;2023-02-12T01:49:27;2.80;99.90
17483;DHT22;8858;52.308;20.994;2023-02-12T01:52:03;2.80;99.90
17483;DHT22;8858;52.308;20.994;2023-02-12T01:54:34;2.90;99.90
17483;DHT22;8858;52.308;20.994;2023-02-12T01:57:27;2.80;99.90
17483;DHT22;8858;52.308;20.994;2023-02-12T02:00:04;2.80;99.90
17483;DHT22;8858;52.308;20.994;2023-02-12T02:02:42;2.80;99.90
17483;DHT22;8858;52.308;20.994;2023-02-12T02:05:19;2.80;99.90
17483;DHT22;8858;52.308;20.994;2023-02-12T02:07:50;2.80;99.90
17483;DHT22;8858;52.308;20.994;2023-02-12T02:10:20;2.70;99.90
17483;DHT22;8858;52.308;20.994;2023-02-12T02:12:49;2.70;99.90
17483;DHT22;8858;52.308;20.994;2023-02-12T02:15:40;2.80;99.90
17483;DHT22;8858;52.308;20.994;2023-02-12T02:18:14;2.80;99.90
17483;DHT22;8858;52.308;20.994;2023-02-12T02:21:30;2.80;99.90
17483;DHT22;8858;52.308;20.994;2023-02-12T02:24:32;2.70;99.90
17483;DHT22;8858;52.308;20.994;2023-02-12T02:27:19;2.80;99.90
17483;DHT22;8858;52.308;20.994;2023-02-12T02:33:26;2.70;99.90
17483;DHT22;8858;52.308;20.994;2023-02-12T02:36:12;2.70;99.90
17483;DHT22;8858;52.308;20.994;2023-02-12T02:38:45;2.70;99.90
17483;DHT22;8858;52.308;20.994;2023-02-12T02:41:26;2.70;99.90
17483;DHT22;8858;52.308;20.994;2023-02-12T02:43:56;2.70;99.90
17483;DHT22;8858;52.308;20.994;2023-02-12T02:46:31;2.80;99.90
17483;DHT22;8858;52.308;20.994;2023-02-12T02:49:05;2.80;99.90
17483;DHT22;8858;52.308;20.994;2023-02-12T02:51:39;2.80;99.90
17483;DHT22;8858;52.308;20.994;2023-02-12T02:54:11;2.80;99.90
17483;DHT22;8858;52.308;20.994;2023-02-12T02:56:46;2.80;99.90
17483;DHT22;8858;52.308;20.994;2023-02-12T02:59:17;2.80;99.90
17483;DHT22;8858;52.308;20.994;2023-02-12T03:01:54;2.90;99.90
17483;DHT22;8858;52.308;20.994;2023-02-12T03:04:29;2.90;99.90
17483;DHT22;8858;52.308;20.994;2023-02-12T03:07:03;2.80;99.90
17483;DHT22;8858;52.308;20.994;2023-02-12T03:09:38;2.80;99.90
17483;DHT22;8858;52.308;20.994;2023-02-12T03:12:13;2.80;99.90
17483;DHT22;8858;52.308;20.994;2023-02-12T03:14:45;2.80;99.90
17483;DHT22;8858;52.308;20.994;2023-02-12T03:17:18;2.80;99.90
17483;DHT22;8858;52.308;20.994;2023-02-12T03:19:54;2.70;99.90
17483;DHT22;8858;52.308;20.994;2023-02-12T03:22:28;2.70;99.90
17483;DHT22;8858;52.308;20.994;2023-02-12T03:25:03;2.60;99.90
17483;DHT22;8858;52.308;20.994;2023-02-12T03:27:38;2.60;99.90
17483;DHT22;8858;52.308;20.994;2023-02-12T03:30:09;2.60;99.90
17483;DHT22;8858;52.308;20.994;2023-02-12T03:32:48;2.60;99.90
17483;DHT22;8858;52.308;20.994;2023-02-12T03:35:28;2.60;99.90
17483;DHT22;8858;52.308;20.994;2023-02-12T03:38:03;2.60;99.90
17483;DHT22;8858;52.308;20.994;2023-02-12T03:40:36;2.70;99.90
17483;DHT22;8858;52.308;20.994;2023-02-12T03:43:13;2.70;99.90
17483;DHT22;8858;52.308;20.994;2023-02-12T03:45:48;2.70;99.90
17483;DHT22;8858;52.308;20.994;2023-02-12T03:48:22;2.60;99.90
17483;DHT22;8858;52.308;20.994;2023-02-12T03:50:57;2.50;99.90
17483;DHT22;8858;52.308;20.994;2023-02-12T03:53:28;2.50;99.90
17483;DHT22;8858;52.308;20.994;2023-02-12T03:56:02;2.50;99.90
17483;DHT22;8858;52.308;20.994;2023-02-12T03:58:33;2.40;99.90
17483;DHT22;8858;52.308;20.994;2023-02-12T04:01:03;2.40;99.90
17483;DHT22;8858;52.308;20.994;2023-02-12T04:03:32;2.40;99.90
17483;DHT22;8858;52.308;20.994;2023-02-12T04:06:02;2.50;99.90
17483;DHT22;8858;52.308;20.994;2023-02-12T04:08:31;2.50;99.90
17483;DHT22;8858;52.308;20.994;2023-02-12T04:11:07;2.50;99.90
17483;DHT22;8858;52.308;20.994;2023-02-12T04:13:42;2.50;99.90
17483;DHT22;8858;52.308;20.994;2023-02-12T04:16:19;2.50;99.90
17483;DHT22;8858;52.308;20.994;2023-02-12T04:18:54;2.50;99.90
17483;DHT22;8858;52.308;20.994;2023-02-12T04:21:37;2.50;99.90
17483;DHT22;8858;52.308;20.994;2023-02-12T04:24:17;2.60;99.90
17483;DHT22;8858;52.308;20.994;2023-02-12T04:26:49;2.60;99.90
17483;DHT22;8858;52.308;20.994;2023-02-12T04:29:27;2.70;99.90
17483;DHT22;8858;52.308;20.994;2023-02-12T04:32:04;2.60;99.90
17483;DHT22;8858;52.308;20.994;2023-02-12T04:34:38;2.50;99.90
17483;DHT22;8858;52.308;20.994;2023-02-12T04:37:16;2.50;99.90
17483;DHT22;8858;52.308;20.994;2023-02-12T04:39:46;2.40;99.90
17483;DHT22;8858;52.308;20.994;2023-02-12T04:42:16;2.40;99.90
17483;DHT22;8858;52.308;20.994;2023-02-12T04:44:44;2.30;99.90
17483;DHT22;8858;52.308;20.994;2023-02-12T04:47:14;2.30;99.90
17483;DHT22;8858;52.308;20.994;2023-02-12T04:49:43;2.30;99.90
17483;DHT22;8858;52.308;20.994;2023-02-12T04:52:12;2.40;99.90
17483;DHT22;8858;52.308;20.994;2023-02-12T04:54:41;2.30;99.90
17483;DHT22;8858;52.308;20.994;2023-02-12T04:57:10;2.30;99.90
17483;DHT22;8858;52.308;20.994;2023-02-12T04:59:42;2.30;99.90
17483;DHT22;8858;52.308;20.994;2023-02-12T05:02:11;2.30;99.90
17483;DHT22;8858;52.308;20.994;2023-02-12T05:04:39;2.30;99.90
17483;DHT22;8858;52.308;20.994;2023-02-12T05:07:09;2.30;99.90
17483;DHT22;8858;52.308;20.994;2023-02-12T05:09:39;2.30;99.90
17483;DHT22;8858;52.308;20.994;2023-02-12T05:12:09;2.30;99.90
17483;DHT22;8858;52.308;20.994;2023-02-12T05:14:39;2.40;99.90
17483;DHT22;8858;52.308;20.994;2023-02-12T05:17:08;2.40;99.90
17483;DHT22;8858;52.308;20.994;2023-02-12T05:19:36;2.40;99.90
17483;DHT22;8858;52.308;20.994;2023-02-12T05:22:05;2.40;99.90
17483;DHT22;8858;52.308;20.994;2023-02-12T05:24:33;2.40;99.90
17483;DHT22;8858;52.308;20.994;2023-02-12T05:27:03;2.40;99.90
17483;DHT22;8858;52.308;20.994;2023-02-12T05:29:33;2.30;99.90
17483;DHT22;8858;52.308;20.994;2023-02-12T05:32:02;2.30;99.90
17483;DHT22;8858;52.308;20.994;2023-02-12T05:34:31;2.30;99.90
17483;DHT22;8858;52.308;20.994;2023-02-12T05:36:59;2.30;99.90
17483;DHT22;8858;52.308;20.994;2023-02-12T05:39:27;2.40;99.90
17483;DHT22;8858;52.308;20.994;2023-02-12T05:41:56;2.40;99.90
17483;DHT22;8858;52.308;20.994;2023-02-12T05:44:27;2.30;99.90
17483;DHT22;8858;52.308;20.994;2023-02-12T05:46:56;2.30;99.90
17483;DHT22;8858;52.308;20.994;2023-02-12T05:49:24;2.40;99.90
17483;DHT22;8858;52.308;20.994;2023-02-12T05:51:53;2.30;99.90
17483;DHT22;8858;52.308;20.994;2023-02-12T05:54:22;2.30;99.90
17483;DHT22;8858;52.308;20.994;2023-02-12T05:56:50;2.30;99.90
17483;DHT22;8858;52.308;20.994;2023-02-12T05:59:21;2.30;99.90
17483;DHT22;8858;52.308;20.994;2023-02-12T06:01:52;2.30;99.90
17483;DHT22;8858;52.308;20.994;2023-02-12T06:04:22;2.30;99.90
17483;DHT22;8858;52.308;20.994;2023-02-12T06:06:55;2.30;99.90
17483;DHT22;8858;52.308;20.994;2023-02-12T06:09:23;2.30;99.90
17483;DHT22;8858;52.308;20.994;2023-02-12T06:11:52;2.30;99.90
17483;DHT22;8858;52.308;20.994;2023-02-12T06:14:20;2.30;99.90
17483;DHT22;8858;52.308;20.994;2023-02-12T06:16:50;2.30;99.90
17483;DHT22;8858;52.308;20.994;2023-02-12T06:19:20;2.30;99.90
17483;DHT22;8858;52.308;20.994;2023-02-12T06:21:50;2.30;99.90
17483;DHT22;8858;52.308;20.994;2023-02-12T06:24:22;2.30;99.90
17483;DHT22;8858;52.308;20.994;2023-02-12T06:26:51;2.30;99.90
17483;DHT22;8858;52.308;20.994;2023-02-12T06:29:20;2.30;99.90
17483;DHT22;8858;52.308;20.994;2023-02-12T06:31:49;2.30;99.90
17483;DHT22;8858;52.308;20.994;2023-02-12T06:34:20;2.20;99.90
17483;DHT22;8858;52.308;20.994;2023-02-12T06:36:48;2.20;99.90
17483;DHT22;8858;52.308;20.994;2023-02-12T06:39:17;2.20;99.90
17483;DHT22;8858;52.308;20.994;2023-02-12T06:41:45;2.10;99.90
17483;DHT22;8858;52.308;20.994;2023-02-12T06:44:14;2.10;99.90
17483;DHT22;8858;52.308;20.994;2023-02-12T06:46:42;2.00;99.90
17483;DHT22;8858;52.308;20.994;2023-02-12T06:49:11;2.00;99.90
17483;DHT22;8858;52.308;20.994;2023-02-12T06:51:41;2.00;99.90
17483;DHT22;8858;52.308;20.994;2023-02-12T06:54:12;2.00;99.90
17483;DHT22;8858;52.308;20.994;2023-02-12T06:56:45;2.00;99.90
17483;DHT22;8858;52.308;20.994;2023-02-12T06:59:15;2.00;99.90
17483;DHT22;8858;52.308;20.994;2023-02-12T07:01:47;2.00;99.90
17483;DHT22;8858;52.308;20.994;2023-02-12T07:04:16;2.00;99.90
17483;DHT22;8858;52.308;20.994;2023-02-12T07:06:46;2.00;99.90
17483;DHT22;8858;52.308;20.994;2023-02-12T07:09:15;2.00;99.90
17483;DHT22;8858;52.308;20.994;2023-02-12T07:11:43;2.00;99.90
17483;DHT22;8858;52.308;20.994;2023-02-12T07:14:16;2.00;99.90
17483;DHT22;8858;52.308;20.994;2023-02-12T07:16:44;2.00;99.90
17483;DHT22;8858;52.308;20.994;2023-02-12T07:19:13;2.10;99.90
17483;DHT22;8858;52.308;20.994;2023-02-12T07:21:43;2.00;99.90
17483;DHT22;8858;52.308;20.994;2023-02-12T07:24:14;2.00;99.90
17483;DHT22;8858;52.308;20.994;2023-02-12T07:26:44;2.10;99.90
17483;DHT22;8858;52.308;20.994;2023-02-12T07:29:13;2.10;99.90
17483;DHT22;8858;52.308;20.994;2023-02-12T07:31:41;2.10;99.90
17483;DHT22;8858;52.308;20.994;2023-02-12T07:34:10;2.20;99.90
17483;DHT22;8858;52.308;20.994;2023-02-12T07:36:39;2.20;99.90
17483;DHT22;8858;52.308;20.994;2023-02-12T07:39:12;2.30;99.90
17483;DHT22;8858;52.308;20.994;2023-02-12T07:41:43;2.40;99.90
17483;DHT22;8858;52.308;20.994;2023-02-12T07:44:12;2.50;99.90
17483;DHT22;8858;52.308;20.994;2023-02-12T07:46:42;2.60;99.90
17483;DHT22;8858;52.308;20.994;2023-02-12T07:49:16;2.70;99.90
17483;DHT22;8858;52.308;20.994;2023-02-12T07:51:47;2.80;99.90
17483;DHT22;8858;52.308;20.994;2023-02-12T07:54:17;2.90;99.90
17483;DHT22;8858;52.308;20.994;2023-02-12T07:56:49;2.80;99.90
17483;DHT22;8858;52.308;20.994;2023-02-12T07:59:21;2.80;99.90
17483;DHT22;8858;52.308;20.994;2023-02-12T08:01:50;2.70;99.90
17483;DHT22;8858;52.308;20.994;2023-02-12T08:04:20;2.80;99.90
17483;DHT22;8858;52.308;20.994;2023-02-12T08:06:51;2.80;99.90
17483;DHT22;8858;52.308;20.994;2023-02-12T08:09:23;2.80;99.90
17483;DHT22;8858;52.308;20.994;2023-02-12T08:11:53;2.70;99.90
17483;DHT22;8858;52.308;20.994;2023-02-12T08:14:26;2.70;99.90
17483;DHT22;8858;52.308;20.994;2023-02-12T08:16:56;2.60;99.90
17483;DHT22;8858;52.308;20.994;2023-02-12T08:19:24;2.50;99.90
17483;DHT22;8858;52.308;20.994;2023-02-12T08:21:54;2.50;99.90
17483;DHT22;8858;52.308;20.994;2023-02-12T08:24:26;2.50;99.90
17483;DHT22;8858;52.308;20.994;2023-02-12T08:26:54;2.60;99.90
17483;DHT22;8858;52.308;20.994;2023-02-12T08:29:28;2.80;99.90
17483;DHT22;8858;52.308;20.994;2023-02-12T08:32:01;2.80;99.90
17483;DHT22;8858;52.308;20.994;2023-02-12T08:34:33;2.80;99.90
17483;DHT22;8858;52.308;20.994;2023-02-12T08:37:05;2.90;99.90
17483;DHT22;8858;52.308;20.994;2023-02-12T08:39:35;2.90;99.90
17483;DHT22;8858;52.308;20.994;2023-02-12T08:42:03;3.00;99.90
17483;DHT22;8858;52.308;20.994;2023-02-12T08:44:31;3.00;99.90
17483;DHT22;8858;52.308;20.994;2023-02-12T08:47:02;3.10;99.90
17483;DHT22;8858;52.308;20.994;2023-02-12T08:49:34;3.10;99.90
17483;DHT22;8858;52.308;20.994;2023-02-12T08:52:02;3.10;99.90
17483;DHT22;8858;52.308;20.994;2023-02-12T08:54:31;3.20;99.90
17483;DHT22;8858;52.308;20.994;2023-02-12T08:57:01;3.30;99.90
17483;DHT22;8858;52.308;20.994;2023-02-12T08:59:30;3.30;99.90
17483;DHT22;8858;52.308;20.994;2023-02-12T09:02:01;3.30;99.90
17483;DHT22;8858;52.308;20.994;2023-02-12T09:04:37;3.30;99.90
17483;DHT22;8858;52.308;20.994;2023-02-12T09:07:10;3.30;99.90
17483;DHT22;8858;52.308;20.994;2023-02-12T09:09:38;3.30;99.90
17483;DHT22;8858;52.308;20.994;2023-02-12T09:12:08;3.30;99.90
17483;DHT22;8858;52.308;20.994;2023-02-12T09:14:37;3.30;99.90
17483;DHT22;8858;52.308;20.994;2023-02-12T09:17:05;3.20;99.90
17483;DHT22;8858;52.308;20.994;2023-02-12T09:19:33;3.20;99.90
17483;DHT22;8858;52.308;20.994;2023-02-12T09:22:02;3.20;99.90
17483;DHT22;8858;52.308;20.994;2023-02-12T09:24:32;3.20;99.90
17483;DHT22;8858;52.308;20.994;2023-02-12T09:27:00;3.30;99.90
17483;DHT22;8858;52.308;20.994;2023-02-12T09:29:33;3.30;99.90
17483;DHT22;8858;52.308;20.994;2023-02-12T09:32:01;3.30;99.90
17483;DHT22;8858;52.308;20.994;2023-02-12T09:34:33;3.40;99.90
17483;DHT22;8858;52.308;20.994;2023-02-12T09:37:02;3.40;99.90
17483;DHT22;8858;52.308;20.994;2023-02-12T09:39:30;3.30;99.90
17483;DHT22;8858;52.308;20.994;2023-02-12T09:42:20;3.20;99.90
17483;DHT22;8858;52.308;20.994;2023-02-12T09:44:58;3.20;99.90
17483;DHT22;8858;52.308;20.994;2023-02-12T09:47:38;3.20;99.90
17483;DHT22;8858;52.308;20.994;2023-02-12T09:50:24;3.30;99.90
17483;DHT22;8858;52.308;20.994;2023-02-12T09:52:55;3.30;99.90
17483;DHT22;8858;52.308;20.994;2023-02-12T09:55:28;3.30;99.90
17483;DHT22;8858;52.308;20.994;2023-02-12T09:57:58;3.20;99.90
17483;DHT22;8858;52.308;20.994;2023-02-12T10:00:30;3.20;99.90
17483;DHT22;8858;52.308;20.994;2023-02-12T10:03:00;3.20;99.90
17483;DHT22;8858;52.308;20.994;2023-02-12T10:05:36;3.30;99.90
17483;DHT22;8858;52.308;20.994;2023-02-12T10:08:23;3.30;99.90
17483;DHT22;8858;52.308;20.994;2023-02-12T10:11:06;3.40;99.90
17483;DHT22;8858;52.308;20.994;2023-02-12T10:13:42;3.40;99.90
17483;DHT22;8858;52.308;20.994;2023-02-12T10:16:25;3.50;99.90
17483;DHT22;8858;52.308;20.994;2023-02-12T10:19:05;3.50;99.90
17483;DHT22;8858;52.308;20.994;2023-02-12T10:21:45;3.60;99.90
17483;DHT22;8858;52.308;20.994;2023-02-12T10:24:37;3.60;99.90
17483;DHT22;8858;52.308;20.994;2023-02-12T10:27:13;3.70;99.90
17483;DHT22;8858;52.308;20.994;2023-02-12T10:29:44;3.70;99.90
17483;DHT22;8858;52.308;20.994;2023-02-12T10:32:24;3.70;99.90
17483;DHT22;8858;52.308;20.994;2023-02-12T10:34:57;3.70;99.90
17483;DHT22;8858;52.308;20.994;2023-02-12T10:37:31;3.70;99.90
17483;DHT22;8858;52.308;20.994;2023-02-12T10:40:05;3.70;99.90
17483;DHT22;8858;52.308;20.994;2023-02-12T10:42:43;3.70;99.90
17483;DHT22;8858;52.308;20.994;2023-02-12T10:45:13;3.70;99.90
17483;DHT22;8858;52.308;20.994;2023-02-12T10:47:45;3.60;99.90
17483;DHT22;8858;52.308;20.994;2023-02-12T10:50:21;3.50;99.90
17483;DHT22;8858;52.308;20.994;2023-02-12T10:52:57;3.50;99.90
17483;DHT22;8858;52.308;20.994;2023-02-12T10:55:30;3.70;99.90
17483;DHT22;8858;52.308;20.994;2023-02-12T10:58:01;3.80;99.90
17483;DHT22;8858;52.308;20.994;2023-02-12T11:00:32;3.90;99.90
17483;DHT22;8858;52.308;20.994;2023-02-12T11:03:19;4.00;99.90
17483;DHT22;8858;52.308;20.994;2023-02-12T11:05:50;4.00;99.90
17483;DHT22;8858;52.308;20.994;2023-02-12T11:08:29;4.00;99.90
17483;DHT22;8858;52.308;20.994;2023-02-12T11:11:06;4.00;99.90
17483;DHT22;8858;52.308;20.994;2023-02-12T11:13:36;3.90;99.90
17483;DHT22;8858;52.308;20.994;2023-02-12T11:16:06;3.90;99.90
17483;DHT22;8858;52.308;20.994;2023-02-12T11:18:36;3.90;99.90
17483;DHT22;8858;52.308;20.994;2023-02-12T11:21:07;4.00;99.90
17483;DHT22;8858;52.308;20.994;2023-02-12T11:23:37;4.10;99.90
17483;DHT22;8858;52.308;20.994;2023-02-12T11:26:24;4.10;99.90
17483;DHT22;8858;52.308;20.994;2023-02-12T11:28:54;4.20;99.90
17483;DHT22;8858;52.308;20.994;2023-02-12T11:31:26;4.30;99.90
17483;DHT22;8858;52.308;20.994;2023-02-12T11:34:11;4.50;99.90
17483;DHT22;8858;52.308;20.994;2023-02-12T11:36:43;4.60;99.90
17483;DHT22;8858;52.308;20.994;2023-02-12T11:39:19;4.70;99.90
17483;DHT22;8858;52.308;20.994;2023-02-12T11:41:51;4.70;99.90
17483;DHT22;8858;52.308;20.994;2023-02-12T11:44:23;4.70;99.90
17483;DHT22;8858;52.308;20.994;2023-02-12T11:46:55;4.80;99.90
17483;DHT22;8858;52.308;20.994;2023-02-12T11:49:30;4.80;99.90
17483;DHT22;8858;52.308;20.994;2023-02-12T11:52:02;4.90;99.90
17483;DHT22;8858;52.308;20.994;2023-02-12T11:54:36;5.00;99.90
17483;DHT22;8858;52.308;20.994;2023-02-12T12:00:02;5.00;99.90
17483;DHT22;8858;52.308;20.994;2023-02-12T12:02:33;5.10;99.90
17483;DHT22;8858;52.308;20.994;2023-02-12T12:05:10;5.30;99.90
17483;DHT22;8858;52.308;20.994;2023-02-12T12:07:44;5.30;99.90
17483;DHT22;8858;52.308;20.994;2023-02-12T12:10:19;5.50;99.90
17483;DHT22;8858;52.308;20.994;2023-02-12T12:12:51;5.40;99.90
17483;DHT22;8858;52.308;20.994;2023-02-12T12:15:23;5.30;99.90
17483;DHT22;8858;52.308;20.994;2023-02-12T12:18:20;5.40;99.90
17483;DHT22;8858;52.308;20.994;2023-02-12T12:21:18;5.60;99.90
17483;DHT22;8858;52.308;20.994;2023-02-12T12:23:53;5.70;99.90
17483;DHT22;8858;52.308;20.994;2023-02-12T12:26:24;5.80;99.90
17483;DHT22;8858;52.308;20.994;2023-02-12T12:28:59;6.00;99.90
17483;DHT22;8858;52.308;20.994;2023-02-12T12:31:31;6.00;99.90
17483;DHT22;8858;52.308;20.994;2023-02-12T12:34:06;5.90;99.90
17483;DHT22;8858;52.308;20.994;2023-02-12T12:37:16;5.90;99.90
17483;DHT22;8858;52.308;20.994;2023-02-12T12:39:59;5.90;99.90
17483;DHT22;8858;52.308;20.994;2023-02-12T12:42:48;6.00;99.90
17483;DHT22;8858;52.308;20.994;2023-02-12T12:45:34;6.00;99.90
17483;DHT22;8858;52.308;20.994;2023-02-12T12:48:14;5.90;99.90
17483;DHT22;8858;52.308;20.994;2023-02-12T12:50:58;5.90;99.90
17483;DHT22;8858;52.308;20.994;2023-02-12T12:53:46;5.80;99.90
17483;DHT22;8858;52.308;20.994;2023-02-12T12:56:32;5.70;99.90
17483;DHT22;8858;52.308;20.994;2023-02-12T12:59:26;5.80;99.90
17483;DHT22;8858;52.308;20.994;2023-02-12T13:02:14;5.80;99.90
17483;DHT22;8858;52.308;20.994;2023-02-12T13:07:55;6.00;99.90
17483;DHT22;8858;52.308;20.994;2023-02-12T13:10:33;6.10;99.90
17483;DHT22;8858;52.308;20.994;2023-02-12T13:13:19;6.10;99.90
17483;DHT22;8858;52.308;20.994;2023-02-12T13:15:57;6.20;99.90
17483;DHT22;8858;52.308;20.994;2023-02-12T13:18:35;6.30;99.90
17483;DHT22;8858;52.308;20.994;2023-02-12T13:21:12;6.40;99.90
17483;DHT22;8858;52.308;20.994;2023-02-12T13:23:45;6.50;99.90
17483;DHT22;8858;52.308;20.994;2023-02-12T13:26:23;6.10;99.90
17483;DHT22;8858;52.308;20.994;2023-02-12T13:29:00;5.70;99.90
17483;DHT22;8858;52.308;20.994;2023-02-12T13:31:37;5.50;99.90
17483;DHT22;8858;52.308;20.994;2023-02-12T13:34:14;5.30;99.90
17483;DHT22;8858;52.308;20.994;2023-02-12T13:36:47;5.40;99.90
17483;DHT22;8858;52.308;20.994;2023-02-12T13:39:26;5.40;99.90
17483;DHT22;8858;52.308;20.994;2023-02-12T13:42:08;5.40;99.90
17483;DHT22;8858;52.308;20.994;2023-02-12T13:44:45;5.30;99.90
17483;DHT22;8858;52.308;20.994;2023-02-12T13:47:24;5.40;99.90
17483;DHT22;8858;52.308;20.994;2023-02-12T13:50:00;5.50;99.90
17483;DHT22;8858;52.308;20.994;2023-02-12T13:52:35;5.50;99.90
17483;DHT22;8858;52.308;20.994;2023-02-12T13:55:22;5.40;99.90
17483;DHT22;8858;52.308;20.994;2023-02-12T14:01:02;5.30;99.90
17483;DHT22;8858;52.308;20.994;2023-02-12T14:03:32;5.10;99.90
17483;DHT22;8858;52.308;20.994;2023-02-12T14:06:13;5.00;99.90
17483;DHT22;8858;52.308;20.994;2023-02-12T14:08:44;4.80;99.90
17483;DHT22;8858;52.308;20.994;2023-02-12T14:11:16;4.80;99.90
17483;DHT22;8858;52.308;20.994;2023-02-12T14:13:51;4.90;99.90
17483;DHT22;8858;52.308;20.994;2023-02-12T14:16:48;4.90;99.90
17483;DHT22;8858;52.308;20.994;2023-02-12T14:19:41;4.90;99.90
17483;DHT22;8858;52.308;20.994;2023-02-12T14:23:01;4.80;99.90
17483;DHT22;8858;52.308;20.994;2023-02-12T14:25:37;4.80;99.90
17483;DHT22;8858;52.308;20.994;2023-02-12T14:28:25;4.70;99.90
17483;DHT22;8858;52.308;20.994;2023-02-12T14:37:35;4.70;99.90
17483;DHT22;8858;52.308;20.994;2023-02-12T14:40:29;4.60;99.90
17483;DHT22;8858;52.308;20.994;2023-02-12T14:42:59;4.40;99.90
17483;DHT22;8858;52.308;20.994;2023-02-12T14:45:32;4.40;99.90
17483;DHT22;8858;52.308;20.994;2023-02-12T14:48:01;4.40;99.90
17483;DHT22;8858;52.308;20.994;2023-02-12T14:50:37;4.40;99.90
17483;DHT22;8858;52.308;20.994;2023-02-12T14:53:25;4.40;99.90
17483;DHT22;8858;52.308;20.994;2023-02-12T14:55:54;4.30;99.90
17483;DHT22;8858;52.308;20.994;2023-02-12T14:58:25;4.20;99.90
17483;DHT22;8858;52.308;20.994;2023-02-12T15:00:55;4.10;99.90
17483;DHT22;8858;52.308;20.994;2023-02-12T15:03:29;4.10;99.90
17483;DHT22;8858;52.308;20.994;2023-02-12T15:06:06;3.90;99.90
17483;DHT22;8858;52.308;20.994;2023-02-12T15:08:43;3.70;99.90
17483;DHT22;8858;52.308;20.994;2023-02-12T15:11:19;3.60;99.90
17483;DHT22;8858;52.308;20.994;2023-02-12T15:13:52;3.50;99.90
17483;DHT22;8858;52.308;20.994;2023-02-12T15:16:30;3.50;99.90
17483;DHT22;8858;52.308;20.994;2023-02-12T15:19:03;3.40;99.90
17483;DHT22;8858;52.308;20.994;2023-02-12T15:21:32;3.40;99.90
17483;DHT22;8858;52.308;20.994;2023-02-12T15:24:05;3.30;99.90
17483;DHT22;8858;52.308;20.994;2023-02-12T15:26:36;3.30;99.90
17483;DHT22;8858;52.308;20.994;2023-02-12T15:29:18;3.20;99.90
17483;DHT22;8858;52.308;20.994;2023-02-12T15:31:52;3.20;99.90
17483;DHT22;8858;52.308;20.994;2023-02-12T15:34:23;3.10;99.90
17483;DHT22;8858;52.308;20.994;2023-02-12T15:36:56;3.00;99.90
17483;DHT22;8858;52.308;20.994;2023-02-12T15:39:27;3.00;99.90
17483;DHT22;8858;52.308;20.994;2023-02-12T15:42:00;3.00;99.90
17483;DHT22;8858;52.308;20.994;2023-02-12T15:44:31;2.90;99.90
17483;DHT22;8858;52.308;20.994;2023-02-12T15:47:08;2.90;99.90
17483;DHT22;8858;52.308;20.994;2023-02-12T15:49:39;2.90;99.90
17483;DHT22;8858;52.308;20.994;2023-02-12T15:52:14;2.90;99.90
17483;DHT22;8858;52.308;20.994;2023-02-12T15:54:47;2.80;99.90
17483;DHT22;8858;52.308;20.994;2023-02-12T15:57:20;2.80;99.90
17483;DHT22;8858;52.308;20.994;2023-02-12T15:59:56;2.80;99.90
17483;DHT22;8858;52.308;20.994;2023-02-12T16:02:27;2.80;99.90
17483;DHT22;8858;52.308;20.994;2023-02-12T16:05:03;2.70;99.90
17483;DHT22;8858;52.308;20.994;2023-02-12T16:07:35;2.70;99.90
17483;DHT22;8858;52.308;20.994;2023-02-12T16:10:13;2.70;99.90
17483;DHT22;8858;52.308;20.994;2023-02-12T16:12:43;2.70;99.90
17483;DHT22;8858;52.308;20.994;2023-02-12T16:15:27;2.70;99.90
17483;DHT22;8858;52.308;20.994;2023-02-12T16:17:57;2.60;99.90
17483;DHT22;8858;52.308;20.994;2023-02-12T16:20:30;2.70;99.90
17483;DHT22;8858;52.308;20.994;2023-02-12T16:23:05;2.60;99.90
17483;DHT22;8858;52.308;20.994;2023-02-12T16:25:35;2.70;99.90
17483;DHT22;8858;52.308;20.994;2023-02-12T16:28:13;2.70;99.90
17483;DHT22;8858;52.308;20.994;2023-02-12T16:30:44;2.70;99.90
17483;DHT22;8858;52.308;20.994;2023-02-12T16:33:32;2.70;99.90
17483;DHT22;8858;52.308;20.994;2023-02-12T16:36:06;2.70;99.90
17483;DHT22;8858;52.308;20.994;2023-02-12T16:38:40;2.70;99.90
17483;DHT22;8858;52.308;20.994;2023-02-12T16:41:21;2.70;99.90
17483;DHT22;8858;52.308;20.994;2023-02-12T16:44:24;2.70;99.90
17483;DHT22;8858;52.308;20.994;2023-02-12T16:46:55;2.70;99.90